createdAt,value
2018-06-04T00:00:33.645Z,100045.89
2018-06-04T00:03:02.689Z,100043.59
2018-06-04T00:05:31.641Z,100040.66
2018-06-04T00:08:00.594Z,100038.84
2018-06-04T00:10:29.587Z,100036.63
2018-06-04T00:12:58.627Z,100035.27
2018-06-04T00:15:27.609Z,100024.78
2018-06-04T00:17:56.653Z,100028.28
2018-06-04T00:20:25.601Z,100026.45
2018-06-04T00:22:54.639Z,100025.61
2018-06-04T00:25:23.621Z,100023.78
2018-06-04T00:27:52.676Z,100025.79
2018-06-04T00:30:21.748Z,100024.22
2018-06-04T00:32:50.761Z,100023.40
2018-06-04T00:35:19.751Z,100019.68
2018-06-04T00:40:40.095Z,100014.98
2018-06-04T00:43:09.081Z,100006.57
2018-06-04T00:45:38.135Z,100013.50
2018-06-04T00:48:07.128Z,100016.30
2018-06-04T00:50:36.118Z,100011.52
2018-06-04T00:53:05.144Z,100005.02
2018-06-04T00:55:44.354Z,100005.31
2018-06-04T00:58:14.477Z,100008.90
2018-06-04T01:00:44.380Z,100010.81
2018-06-04T01:03:13.348Z,100005.81
2018-06-04T01:05:42.357Z,100007.59
2018-06-04T01:08:11.404Z,100005.90
2018-06-04T01:10:40.453Z,100009.80
2018-06-04T01:13:09.519Z,100001.20
2018-06-04T01:15:38.528Z,100006.61
2018-06-04T01:18:07.487Z,100003.66
2018-06-04T01:20:37.065Z,100006.55
2018-06-04T01:23:06.038Z,100008.23
2018-06-04T01:25:35.007Z,100004.18
2018-06-04T01:28:04.092Z,100006.63
2018-06-04T01:30:33.083Z,100000.81
2018-06-04T01:33:02.161Z,99995.67
2018-06-04T01:35:31.152Z,99994.63
2018-06-04T01:38:00.140Z,99994.70
2018-06-04T01:40:29.164Z,99990.66
2018-06-04T01:42:58.140Z,99989.48
2018-06-04T01:45:27.200Z,99992.11
2018-06-04T01:47:56.231Z,99993.84
2018-06-04T01:50:26.010Z,99995.97
2018-06-04T01:52:54.993Z,99990.56
2018-06-04T01:55:24.098Z,99992.04
2018-06-04T01:57:53.077Z,99990.84
2018-06-04T02:00:22.089Z,99990.12
2018-06-04T02:02:51.068Z,99986.23
2018-06-04T02:05:20.062Z,99982.08
2018-06-04T02:07:49.044Z,99983.28
2018-06-04T02:12:50.127Z,99978.87
2018-06-04T02:15:19.150Z,99979.16
2018-06-04T02:17:48.125Z,99977.52
2018-06-04T02:20:17.191Z,99972.98
2018-06-04T02:22:46.889Z,99970.64
2018-06-04T02:25:15.936Z,99960.84
2018-06-04T02:27:44.970Z,99966.70
2018-06-04T02:30:13.981Z,99965.55
2018-06-04T02:32:42.988Z,99970.48
2018-06-04T02:35:12.150Z,99971.63
2018-06-04T02:37:41.206Z,99973.67
2018-06-04T02:40:10.290Z,99972.47
2018-06-04T02:42:39.372Z,99965.17
2018-06-04T02:45:08.362Z,99966.68
2018-06-04T02:47:37.351Z,99967.97
2018-06-04T02:50:06.365Z,99966.11
2018-06-04T02:52:35.451Z,99967.09
2018-06-04T02:55:04.412Z,99962.78
2018-06-04T02:57:33.399Z,99964.22
2018-06-04T03:00:02.390Z,99962.24
2018-06-04T03:02:31.339Z,99961.20
2018-06-04T03:05:00.360Z,99961.98
2018-06-04T03:07:29.980Z,99958.34
2018-06-04T03:09:59.017Z,99956.06
2018-06-04T03:12:27.991Z,99953.67
2018-06-04T03:14:56.970Z,99955.59
2018-06-04T03:17:26.246Z,99955.91
2018-06-04T03:19:55.254Z,99955.97
2018-06-04T03:22:24.218Z,99960.22
2018-06-04T03:24:53.191Z,99961.00
2018-06-04T03:27:22.172Z,99955.84
2018-06-04T03:29:51.161Z,99953.45
2018-06-04T03:32:20.136Z,99954.55
2018-06-04T03:34:49.169Z,99949.01
2018-06-04T03:37:18.151Z,99947.66
2018-06-04T03:39:47.158Z,99947.78
2018-06-04T03:42:16.135Z,99943.72
2018-06-04T03:44:45.140Z,99940.14
2018-06-04T03:47:14.180Z,99947.56
2018-06-04T03:49:43.179Z,99948.26
2018-06-04T03:52:12.196Z,99947.97
2018-06-04T03:54:41.192Z,99950.92
2018-06-04T03:57:10.227Z,99952.88
2018-06-04T03:59:39.232Z,99954.80
2018-06-04T04:02:08.288Z,99952.03
2018-06-04T04:04:37.351Z,99945.08
2018-06-04T04:07:06.339Z,99947.85
2018-06-04T04:09:35.369Z,99950.56
2018-06-04T04:12:04.358Z,99945.14
2018-06-04T04:14:33.341Z,99945.55
2018-06-04T04:17:02.364Z,99952.01
2018-06-04T04:19:31.353Z,99951.34
2018-06-04T04:22:00.340Z,99953.48
2018-06-04T04:24:29.334Z,99948.70
2018-06-04T04:26:58.543Z,99949.14
2018-06-04T04:29:27.799Z,99941.18
2018-06-04T04:31:56.770Z,99939.54
2018-06-04T04:34:25.784Z,99943.88
2018-06-04T04:36:54.783Z,99949.10
2018-06-04T04:39:23.783Z,99950.02
2018-06-04T04:41:52.753Z,99951.17
2018-06-04T04:44:21.765Z,99948.94
2018-06-04T04:46:50.771Z,99948.94
2018-06-04T04:49:19.764Z,99950.39
2018-06-04T04:51:49.256Z,99953.63
2018-06-04T04:54:18.243Z,99948.00
2018-06-04T04:56:47.361Z,99946.45
2018-06-04T04:59:16.347Z,99949.42
2018-06-04T05:01:45.373Z,99950.48
2018-06-04T05:04:14.454Z,99947.73
2018-06-04T05:06:43.571Z,99951.48
2018-06-04T05:09:12.680Z,99951.73
2018-06-04T05:11:41.671Z,99949.83
2018-06-04T05:14:11.694Z,99951.28
2018-06-04T05:16:40.695Z,99950.23
2018-06-04T05:19:09.752Z,99953.13
2018-06-04T05:21:38.837Z,99953.89
2018-06-04T05:24:07.828Z,99953.00
2018-06-04T05:26:36.872Z,99952.58
2018-06-04T05:29:05.876Z,99946.07
2018-06-04T05:31:34.856Z,99951.39
2018-06-04T05:34:03.822Z,99941.37
2018-06-04T05:36:32.902Z,99941.61
2018-06-04T05:39:01.892Z,99934.98
2018-06-04T05:41:30.891Z,99943.00
2018-06-04T05:43:59.908Z,99936.49
2018-06-04T05:46:28.941Z,99930.48
2018-06-04T05:48:58.557Z,99929.29
2018-06-04T05:51:27.574Z,99930.20
2018-06-04T05:53:56.531Z,99925.09
2018-06-04T05:56:25.505Z,99926.91
2018-06-04T05:58:54.478Z,99924.37
2018-06-04T06:01:24.394Z,99921.14
2018-06-04T06:03:53.387Z,99929.83
2018-06-04T06:06:22.386Z,99923.09
2018-06-04T06:08:51.995Z,99917.59
2018-06-04T06:11:20.991Z,99913.45
2018-06-04T06:13:49.970Z,99912.11
2018-06-04T06:16:19.947Z,99910.89
2018-06-04T06:18:48.977Z,99910.53
2018-06-04T06:21:17.972Z,99899.06
2018-06-04T06:23:47.012Z,99897.06
2018-06-04T06:26:16.381Z,99891.20
2018-06-04T06:28:45.364Z,99893.84
2018-06-04T06:31:14.404Z,99888.45
2018-06-04T06:33:43.417Z,99885.54
2018-06-04T06:36:12.411Z,99879.20
2018-06-04T06:38:41.444Z,99875.69
2018-06-04T06:41:10.718Z,99871.81
2018-06-04T06:43:39.716Z,99868.30
2018-06-04T06:46:08.992Z,99872.59
2018-06-04T06:48:38.053Z,99878.36
2018-06-04T06:51:07.315Z,99872.91
2018-06-04T06:53:36.297Z,99869.02
2018-06-04T06:56:05.556Z,99863.30
2018-06-04T06:58:34.567Z,99868.52
2018-06-04T07:01:03.747Z,99868.11
2018-06-04T07:03:32.707Z,99861.42
2018-06-04T07:06:01.968Z,99858.69
2018-06-04T07:08:30.953Z,99860.78
2018-06-04T07:11:00.183Z,99863.73
2018-06-04T07:13:29.152Z,99857.39
2018-06-04T07:15:58.276Z,99866.20
2018-06-04T07:18:27.346Z,99865.20
2018-06-04T07:20:56.420Z,99863.64
2018-06-04T07:23:25.553Z,99859.06
2018-06-04T07:25:54.621Z,99862.00
2018-06-04T07:28:23.619Z,99855.86
2018-06-04T07:30:52.589Z,99859.59
2018-06-04T07:33:21.749Z,99851.78
2018-06-04T07:35:50.754Z,99858.58
2018-06-04T07:38:19.761Z,99856.02
2018-06-04T07:40:48.894Z,99857.20
2018-06-04T07:43:17.911Z,99859.53
2018-06-04T07:45:46.907Z,99855.83
2018-06-04T07:48:15.898Z,99860.72
2018-06-04T07:50:44.928Z,99851.23
2018-06-04T07:53:13.923Z,99850.05
2018-06-04T07:55:43.013Z,99848.13
2018-06-04T07:58:12.088Z,99840.53
2018-06-04T08:00:41.333Z,99839.16
2018-06-04T08:03:10.456Z,99840.63
2018-06-04T08:05:39.489Z,99845.55
2018-06-04T08:08:08.499Z,99846.90
2018-06-04T08:10:37.652Z,99840.03
2018-06-04T08:13:06.690Z,99836.66
2018-06-04T08:15:35.664Z,99835.43
2018-06-04T08:18:04.749Z,99832.11
2018-06-04T08:20:33.700Z,99832.94
2018-06-04T08:23:02.708Z,99831.45
2018-06-04T08:25:31.678Z,99832.41
2018-06-04T08:28:00.719Z,99820.94
2018-06-04T08:30:29.702Z,99821.09
2018-06-04T08:32:58.686Z,99823.30
2018-06-04T08:35:27.707Z,99816.96
2018-06-04T08:37:56.755Z,99810.34
2018-06-04T08:40:25.763Z,99813.53
2018-06-04T08:42:54.748Z,99815.72
2018-06-04T08:45:23.764Z,99808.48
2018-06-04T08:47:52.750Z,99809.64
2018-06-04T08:50:21.734Z,99814.69
2018-06-04T08:52:50.835Z,99812.05
2018-06-04T08:55:19.896Z,99812.28
2018-06-04T08:57:48.945Z,99811.28
2018-06-04T09:00:17.928Z,99800.56
2018-06-04T09:02:46.909Z,99806.25
2018-06-04T09:05:15.912Z,99800.56
2018-06-04T09:07:44.931Z,99805.63
2018-06-04T09:10:13.948Z,99801.17
2018-06-04T09:12:42.918Z,99797.83
2018-06-04T09:15:13.073Z,99792.96
2018-06-04T09:17:42.106Z,99797.20
2018-06-04T09:20:11.081Z,99797.75
2018-06-04T09:22:40.088Z,99790.34
2018-06-04T09:25:09.111Z,99789.87
2018-06-04T09:27:38.081Z,99783.34
2018-06-04T09:30:07.454Z,99782.39
2018-06-04T09:32:36.441Z,99786.39
2018-06-04T09:35:05.455Z,99784.14
2018-06-04T09:37:34.560Z,99788.19
2018-06-04T09:40:03.558Z,99787.93
2018-06-04T09:42:32.533Z,99789.69
2018-06-04T09:45:01.580Z,99785.19
2018-06-04T09:47:30.565Z,99784.08
2018-06-04T09:49:59.546Z,99779.91
2018-06-04T09:52:28.676Z,99783.53
2018-06-04T09:54:57.671Z,99780.17
2018-06-04T09:57:26.738Z,99778.90
2018-06-04T09:59:57.618Z,99775.27
2018-06-04T10:02:26.688Z,99775.20
2018-06-04T10:04:55.677Z,99770.44
2018-06-04T10:07:24.702Z,99767.94
2018-06-04T10:09:53.740Z,99757.52
2018-06-04T10:12:24.014Z,99759.79
2018-06-04T10:14:53.063Z,99761.43
2018-06-04T10:17:22.037Z,99752.23
2018-06-04T10:19:51.006Z,99746.66
2018-06-04T10:22:19.999Z,99748.52
2018-06-04T10:24:48.971Z,99747.60
2018-06-04T10:27:17.977Z,99740.29
2018-06-04T10:29:46.930Z,99741.95
2018-06-04T10:32:15.960Z,99742.40
2018-06-04T10:34:45.003Z,99736.38
2018-06-04T10:37:13.969Z,99740.55
2018-06-04T10:39:42.954Z,99729.56
2018-06-04T10:42:11.941Z,99734.73
2018-06-04T10:44:40.995Z,99724.91
2018-06-04T10:47:09.995Z,99720.22
2018-06-04T10:49:38.995Z,99717.11
2018-06-04T10:52:08.005Z,99715.17
2018-06-04T10:54:36.988Z,99721.13
2018-06-04T10:57:05.966Z,99707.70
2018-06-04T10:59:34.992Z,99707.38
2018-06-04T11:02:03.956Z,99710.30
2018-06-04T11:04:32.959Z,99713.05
2018-06-04T11:07:01.915Z,99713.11
2018-06-04T11:09:30.915Z,99704.04
2018-06-04T11:11:59.960Z,99708.18
2018-06-04T11:14:28.926Z,99701.09
2018-06-04T11:16:57.935Z,99704.19
2018-06-04T11:19:26.945Z,99698.58
2018-06-04T11:21:55.915Z,99693.64
2018-06-04T11:24:24.882Z,99694.09
2018-06-04T11:26:53.924Z,99692.27
2018-06-04T11:29:22.867Z,99701.08
2018-06-04T11:31:51.869Z,99692.95
2018-06-04T11:34:20.847Z,99696.28
2018-06-04T11:36:49.828Z,99697.05
2018-06-04T11:39:18.823Z,99696.24
2018-06-04T11:41:47.870Z,99691.22
2018-06-04T11:44:16.841Z,99691.59
2018-06-04T11:46:46.026Z,99699.50
2018-06-04T11:49:16.007Z,99689.77
2018-06-04T11:51:45.055Z,99690.63
2018-06-04T11:54:14.373Z,99687.78
2018-06-04T11:56:43.375Z,99683.40
2018-06-04T11:59:12.305Z,99683.59
2018-06-04T12:01:41.408Z,99676.41
2018-06-04T12:04:10.327Z,99672.81
2018-06-04T12:06:39.352Z,99673.52
2018-06-04T12:09:08.482Z,99672.23
2018-06-04T12:11:37.527Z,99668.64
2018-06-04T12:14:06.492Z,99667.56
2018-06-04T12:16:35.520Z,99662.08
2018-06-04T12:19:04.557Z,99653.80
2018-06-04T12:21:33.595Z,99645.21
2018-06-04T12:24:02.569Z,99644.02
2018-06-04T12:26:31.604Z,99642.74
2018-06-04T12:29:00.580Z,99637.23
2018-06-04T12:31:29.558Z,99630.70
2018-06-04T12:33:58.564Z,99631.55
2018-06-04T12:36:27.517Z,99626.97
2018-06-04T12:38:56.562Z,99617.80
2018-06-04T12:41:25.592Z,99612.52
2018-06-04T12:43:54.612Z,99603.56
2018-06-04T12:46:23.565Z,99606.06
2018-06-04T12:48:52.630Z,99600.80
2018-06-04T12:51:21.631Z,99594.61
2018-06-04T12:53:50.632Z,99591.23
2018-06-04T12:56:19.611Z,99589.16
2018-06-04T12:58:48.615Z,99577.67
2018-06-04T13:01:17.623Z,99576.59
2018-06-04T13:03:46.667Z,99581.10
2018-06-04T13:06:16.759Z,99570.15
2018-06-04T13:08:45.740Z,99566.73
2018-06-04T13:11:14.770Z,99568.25
2018-06-04T13:13:43.739Z,99568.87
2018-06-04T13:16:12.788Z,99558.83
2018-06-04T13:18:41.770Z,99560.08
2018-06-04T13:21:10.754Z,99564.71
2018-06-04T13:23:39.702Z,99556.66
2018-06-04T13:26:08.696Z,99554.98
2018-06-04T13:28:37.664Z,99551.24
2018-06-04T13:31:06.815Z,99543.63
2018-06-04T13:33:35.799Z,99543.63
2018-06-04T13:36:04.796Z,99541.72
2018-06-04T13:38:38.208Z,99537.56
2018-06-04T13:41:07.450Z,99533.66
2018-06-04T13:43:36.449Z,99534.23
2018-06-04T13:46:05.499Z,99519.34
2018-06-04T13:48:34.510Z,99522.13
2018-06-04T13:51:03.513Z,99520.05
2018-06-04T13:53:32.576Z,99517.01
2018-06-04T13:56:01.669Z,99519.20
2018-06-04T13:58:30.601Z,99512.91
2018-06-04T14:00:59.590Z,99514.17
2018-06-04T14:03:28.645Z,99515.93
2018-06-04T14:05:57.618Z,99499.30
2018-06-04T14:08:26.879Z,99501.48
2018-06-04T14:10:56.251Z,99494.44
2018-06-04T14:13:25.250Z,99499.92
2018-06-04T14:15:54.213Z,99498.09
2018-06-04T14:18:23.283Z,99504.47
2018-06-04T14:20:52.382Z,99509.23
2018-06-04T14:23:21.372Z,99511.41
2018-06-04T14:25:50.432Z,99514.83
2018-06-04T14:28:19.444Z,99510.77
2018-06-04T14:30:48.443Z,99515.69
2018-06-04T14:33:17.611Z,99519.16
2018-06-04T14:35:46.743Z,99519.50
2018-06-04T14:38:15.846Z,99518.22
2018-06-04T14:40:44.826Z,99515.27
2018-06-04T14:43:13.986Z,99501.90
2018-06-04T14:45:42.952Z,99495.41
2018-06-04T14:48:14.816Z,99497.30
2018-06-04T14:50:44.956Z,99487.17
2018-06-04T14:53:14.046Z,99491.41
2018-06-04T14:55:43.079Z,99486.82
2018-06-04T14:58:12.114Z,99487.29
2018-06-04T15:00:41.144Z,99479.30
2018-06-04T15:03:10.103Z,99479.50
2018-06-04T15:05:39.075Z,99472.72
2018-06-04T15:08:08.036Z,99469.64
2018-06-04T15:10:37.017Z,99470.61
2018-06-04T15:13:06.028Z,99469.86
2018-06-04T15:15:35.009Z,99470.27
2018-06-04T15:18:05.057Z,99473.88
2018-06-04T15:20:34.080Z,99472.64
2018-06-04T15:23:03.115Z,99474.10
2018-06-04T15:25:32.168Z,99468.53
2018-06-04T15:28:01.228Z,99468.17
2018-06-04T15:30:30.396Z,99460.95
2018-06-04T15:32:59.517Z,99463.30
2018-06-04T15:35:28.666Z,99457.82
2018-06-04T15:37:57.732Z,99460.29
2018-06-04T15:40:26.720Z,99454.56
2018-06-04T15:42:55.731Z,99454.95
2018-06-04T15:45:24.806Z,99447.29
2018-06-04T15:47:53.887Z,99451.53
2018-06-04T15:50:22.978Z,99449.78
2018-06-04T15:52:52.036Z,99446.42
2018-06-04T15:55:21.066Z,99446.67
2018-06-04T15:57:50.072Z,99454.28
2018-06-04T16:00:19.079Z,99446.92
2018-06-04T16:02:48.167Z,99441.64
2018-06-04T16:05:17.280Z,99444.34
2018-06-04T16:07:46.436Z,99438.03
2018-06-04T16:10:22.069Z,99438.88
2018-06-04T16:12:51.103Z,99442.25
2018-06-04T16:15:20.121Z,99435.16
2018-06-04T16:17:49.088Z,99430.44
2018-06-04T16:20:18.076Z,99423.31
2018-06-04T16:22:47.167Z,99428.28
2018-06-04T16:25:16.183Z,99430.60
2018-06-04T16:27:45.310Z,99428.75
2018-06-04T16:30:14.377Z,99430.20
2018-06-04T16:32:43.515Z,99428.98
2018-06-04T16:35:12.666Z,99430.19
2018-06-04T16:37:41.659Z,99427.27
2018-06-04T16:40:10.759Z,99424.66
2018-06-04T16:42:39.887Z,99427.50
2018-06-04T16:45:09.230Z,99423.77
2018-06-04T16:47:38.287Z,99423.31
2018-06-04T16:50:07.321Z,99415.73
2018-06-04T16:52:36.429Z,99420.84
2018-06-04T16:55:05.423Z,99416.54
2018-06-04T16:57:34.427Z,99412.03
2018-06-04T17:00:03.461Z,99413.07
2018-06-04T17:02:32.697Z,99410.39
2018-06-04T17:05:02.061Z,99409.47
2018-06-04T17:07:31.101Z,99404.61
2018-06-04T17:10:00.138Z,99405.63
2018-06-04T17:12:29.196Z,99405.93
2018-06-04T17:14:58.194Z,99407.02
2018-06-04T17:17:27.854Z,99401.10
2018-06-04T17:19:56.945Z,99403.11
2018-06-04T17:22:25.903Z,99403.08
2018-06-04T17:24:54.952Z,99403.31
2018-06-04T17:27:24.008Z,99396.61
2018-06-04T17:29:53.031Z,99402.17
2018-06-04T17:32:22.043Z,99410.73
2018-06-04T17:34:51.040Z,99407.05
2018-06-04T17:37:20.116Z,99405.80
2018-06-04T17:39:49.243Z,99401.98
2018-06-04T17:42:18.290Z,99401.38
2018-06-04T17:44:47.351Z,99400.66
2018-06-04T17:47:16.308Z,99397.91
2018-06-04T17:49:45.351Z,99401.70
2018-06-04T17:52:14.333Z,99384.88
2018-06-04T17:54:43.297Z,99391.14
2018-06-04T17:57:12.328Z,99393.07
2018-06-04T17:59:41.300Z,99398.42
2018-06-04T18:02:10.300Z,99392.17
2018-06-04T18:04:39.313Z,99388.12
2018-06-04T18:07:08.332Z,99388.34
2018-06-04T18:09:37.505Z,99387.41
2018-06-04T18:12:06.602Z,99383.72
2018-06-04T18:14:35.699Z,99381.59
2018-06-04T18:17:04.757Z,99385.73
2018-06-04T18:19:33.783Z,99384.14
2018-06-04T18:22:03.200Z,99382.43
2018-06-04T18:24:32.425Z,99389.09
2018-06-04T18:27:01.716Z,99387.16
2018-06-04T18:29:30.794Z,99390.88
2018-06-04T18:31:59.878Z,99388.53
2018-06-04T18:34:30.281Z,99391.48
2018-06-04T18:36:59.273Z,99396.56
2018-06-04T18:39:28.244Z,99398.48
2018-06-04T18:41:57.242Z,99400.83
2018-06-04T18:44:28.712Z,99402.37
2018-06-04T18:46:57.713Z,99404.30
2018-06-04T18:49:26.710Z,99415.02
2018-06-04T18:51:55.778Z,99406.72
2018-06-04T18:54:24.773Z,99411.98
2018-06-04T18:56:53.742Z,99413.89
2018-06-04T18:59:22.735Z,99413.05
2018-06-04T19:01:51.725Z,99423.17
2018-06-04T19:04:20.748Z,99426.87
2018-06-04T19:06:49.763Z,99416.04
2018-06-04T19:09:18.808Z,99420.27
2018-06-04T19:11:47.743Z,99415.91
2018-06-04T19:14:16.720Z,99425.80
2018-06-04T19:16:45.710Z,99425.34
2018-06-04T19:19:14.786Z,99434.07
2018-06-04T19:21:43.756Z,99440.61
2018-06-04T19:24:12.904Z,99443.64
2018-06-04T19:26:41.921Z,99447.09
2018-06-04T19:29:10.897Z,99448.37
2018-06-04T19:31:39.876Z,99451.59
2018-06-04T19:34:09.034Z,99458.11
2018-06-04T19:36:38.053Z,99454.77
2018-06-04T19:39:08.933Z,99459.35
2018-06-04T19:41:38.011Z,99461.80
2018-06-04T19:44:07.214Z,99464.17
2018-06-04T19:46:36.331Z,99466.41
2018-06-04T19:49:05.725Z,99467.87
2018-06-04T19:51:34.726Z,99474.25
2018-06-04T19:54:03.754Z,99473.77
2018-06-04T19:56:32.775Z,99473.38
2018-06-04T19:59:01.766Z,99480.73
2018-06-04T20:01:30.771Z,99473.84
2018-06-04T20:04:01.557Z,99474.63
2018-06-04T20:06:30.791Z,99482.61
2018-06-04T20:08:59.865Z,99477.33
2018-06-04T20:11:28.859Z,99486.67
2018-06-04T20:13:57.839Z,99488.23
2018-06-04T20:16:26.889Z,99489.95
2018-06-04T20:18:55.883Z,99487.19
2018-06-04T20:21:24.884Z,99493.01
2018-06-04T20:23:53.989Z,99489.17
2018-06-04T20:26:22.945Z,99492.29
2018-06-04T20:28:52.065Z,99491.58
2018-06-04T20:31:21.068Z,99495.41
2018-06-04T20:33:50.050Z,99499.92
2018-06-04T20:36:19.014Z,99503.48
2018-06-04T20:38:48.025Z,99506.86
2018-06-04T20:41:17.107Z,99497.16
2018-06-04T20:43:46.247Z,99496.38
2018-06-04T20:46:15.330Z,99508.00
2018-06-04T20:48:44.409Z,99507.64
2018-06-04T20:51:13.561Z,99514.30
2018-06-04T20:53:42.589Z,99507.71
2018-06-04T20:56:11.726Z,99514.30
2018-06-04T20:58:40.732Z,99503.63
2018-06-04T21:01:09.829Z,99505.34
2018-06-04T21:03:38.837Z,99505.50
2018-06-04T21:06:07.870Z,99505.95
2018-06-04T21:08:36.886Z,99505.69
2018-06-04T21:11:06.000Z,99506.63
2018-06-04T21:13:35.124Z,99503.67
2018-06-04T21:16:04.111Z,99507.10
2018-06-04T21:18:33.147Z,99501.06
2018-06-04T21:21:02.200Z,99502.95
2018-06-04T21:23:31.636Z,99509.72
2018-06-04T21:26:00.736Z,99510.58
2018-06-04T21:28:29.669Z,99504.08
2018-06-04T21:30:58.641Z,99508.84
2018-06-04T21:33:27.625Z,99505.99
2018-06-04T21:35:56.692Z,99508.88
2018-06-04T21:38:25.721Z,99505.09
2018-06-04T21:40:54.895Z,99505.83
2018-06-04T21:43:23.962Z,99508.91
2018-06-04T21:45:55.994Z,99511.36
2018-06-04T21:48:25.244Z,99514.58
2018-06-04T21:50:54.341Z,99516.98
2018-06-04T21:53:23.345Z,99517.59
2018-06-04T21:55:52.322Z,99516.26
2018-06-04T21:58:21.323Z,99521.72
2018-06-04T22:00:50.393Z,99516.28
2018-06-04T22:03:19.390Z,99524.02
2018-06-04T22:05:48.518Z,99522.14
2018-06-04T22:08:17.757Z,99524.37
2018-06-04T22:10:46.743Z,99523.36
2018-06-04T22:13:15.739Z,99528.30
2018-06-04T22:15:44.753Z,99532.28
2018-06-04T22:18:13.852Z,99529.27
2018-06-04T22:20:43.231Z,99537.23
2018-06-04T22:23:12.331Z,99530.93
2018-06-04T22:25:41.810Z,99533.59
2018-06-04T22:28:10.847Z,99535.52
2018-06-04T22:30:40.048Z,99543.15
2018-06-04T22:33:09.532Z,99547.50
2018-06-04T22:35:38.579Z,99548.80
2018-06-04T22:38:07.819Z,99550.49
2018-06-04T22:40:36.809Z,99548.05
2018-06-04T22:43:05.823Z,99547.52
2018-06-04T22:45:35.283Z,99549.59
2018-06-04T22:48:04.445Z,99541.91
2018-06-04T22:50:33.451Z,99546.49
2018-06-04T22:53:02.467Z,99548.53
2018-06-04T22:55:31.530Z,99550.47
2018-06-04T22:58:01.451Z,99545.23
2018-06-04T23:00:33.105Z,99547.53
2018-06-04T23:03:02.211Z,99549.60
2018-06-04T23:05:31.316Z,99547.15
2018-06-04T23:08:01.099Z,99547.64
2018-06-04T23:10:30.142Z,99550.36
2018-06-04T23:12:59.132Z,99546.16
2018-06-04T23:15:28.095Z,99551.70
2018-06-04T23:17:57.117Z,99549.50
2018-06-04T23:20:26.297Z,99551.30
2018-06-04T23:22:55.392Z,99549.60
2018-06-04T23:25:24.414Z,99554.53
2018-06-04T23:27:53.368Z,99551.41
2018-06-04T23:30:22.372Z,99558.33
2018-06-04T23:32:51.353Z,99560.49
2018-06-04T23:35:20.587Z,99563.20
2018-06-04T23:37:49.620Z,99562.40
2018-06-04T23:40:18.757Z,99561.59
2018-06-04T23:42:47.859Z,99559.78
2018-06-04T23:45:16.887Z,99565.14
2018-06-04T23:47:46.161Z,99560.28
2018-06-04T23:50:15.928Z,99563.31
2018-06-04T23:52:45.029Z,99565.22
2018-06-04T23:55:14.183Z,99570.44
2018-06-04T23:57:43.159Z,99565.22
